createdAt,value
2018-03-27T00:00:03.589Z,787.79
2018-03-27T00:00:07.799Z,787.83
2018-03-27T00:00:12.086Z,787.8
2018-03-27T00:00:16.076Z,787.8
2018-03-27T00:00:20.226Z,787.79
2018-03-27T00:00:24.329Z,787.78
2018-03-27T00:00:28.547Z,787.79
2018-03-27T00:00:32.434Z,787.79
2018-03-27T00:00:36.539Z,787.78
2018-03-27T00:00:40.651Z,787.79
2018-03-27T00:00:44.539Z,787.81
2018-03-27T00:00:48.429Z,787.83
2018-03-27T00:00:52.639Z,787.82
2018-03-27T00:00:56.637Z,787.75
2018-03-27T00:01:00.773Z,787.76
2018-03-27T00:01:04.988Z,787.79
2018-03-27T00:01:08.986Z,787.82
2018-03-27T00:01:12.868Z,787.79
2018-03-27T00:01:17.096Z,787.81
2018-03-27T00:01:21.216Z,787.8
2018-03-27T00:01:25.321Z,787.8
2018-03-27T00:01:29.432Z,787.78
2018-03-27T00:01:33.423Z,787.77
2018-03-27T00:01:37.417Z,787.78
2018-03-27T00:01:41.622Z,787.78
2018-03-27T00:01:45.721Z,787.79
2018-03-27T00:01:49.826Z,787.78
2018-03-27T00:01:54.049Z,787.78
2018-03-27T00:01:58.265Z,787.8
2018-03-27T00:02:02.602Z,787.79
2018-03-27T00:02:06.598Z,787.77
2018-03-27T00:02:10.479Z,787.8
2018-03-27T00:02:14.578Z,787.82
2018-03-27T00:02:18.817Z,787.83
2018-03-27T00:02:22.816Z,787.82
2018-03-27T00:02:26.923Z,787.79
2018-03-27T00:02:31.026Z,787.79
2018-03-27T00:02:35.133Z,787.78
2018-03-27T00:02:39.129Z,787.78
2018-03-27T00:02:43.227Z,787.77
2018-03-27T00:02:47.223Z,787.8
2018-03-27T00:02:51.215Z,787.78
2018-03-27T00:02:55.428Z,787.82
2018-03-27T00:02:59.540Z,787.8
2018-03-27T00:03:03.770Z,787.79
2018-03-27T00:03:07.655Z,787.78
2018-03-27T00:03:11.651Z,787.82
2018-03-27T00:03:15.752Z,787.75
2018-03-27T00:03:19.640Z,787.75
2018-03-27T00:03:23.630Z,787.76
2018-03-27T00:03:27.406Z,787.78
2018-03-27T00:03:31.505Z,787.8
2018-03-27T00:03:35.718Z,787.8
2018-03-27T00:03:39.823Z,787.84
2018-03-27T00:03:43.924Z,787.84
2018-03-27T00:03:48.023Z,787.83
2018-03-27T00:03:52.133Z,787.81
2018-03-27T00:03:56.237Z,787.8
2018-03-27T00:04:00.336Z,787.84
2018-03-27T00:04:04.488Z,787.79
2018-03-27T00:04:08.375Z,787.82
2018-03-27T00:04:12.585Z,787.83
2018-03-27T00:04:16.575Z,787.83
2018-03-27T00:04:20.687Z,787.83
2018-03-27T00:04:24.701Z,787.85
2018-03-27T00:04:28.727Z,787.86
2018-03-27T00:04:32.835Z,787.85
2018-03-27T00:04:37.056Z,787.85
2018-03-27T00:04:40.836Z,787.86
2018-03-27T00:04:44.832Z,787.85
2018-03-27T00:04:48.935Z,787.85
2018-03-27T00:04:53.146Z,787.88
2018-03-27T00:04:57.407Z,787.85
2018-03-27T00:05:01.620Z,787.86
2018-03-27T00:05:05.524Z,787.87
2018-03-27T00:05:09.622Z,787.87
2018-03-27T00:05:13.724Z,787.85
2018-03-27T00:05:18.080Z,787.84
2018-03-27T00:05:22.687Z,787.85
2018-03-27T00:05:26.632Z,787.85
2018-03-27T00:05:30.730Z,787.87
2018-03-27T00:05:34.621Z,787.84
2018-03-27T00:05:38.616Z,787.76
2018-03-27T00:05:42.501Z,787.86
2018-03-27T00:05:46.712Z,787.85
2018-03-27T00:05:50.703Z,787.84
2018-03-27T00:05:54.697Z,787.83
2018-03-27T00:05:58.703Z,787.85
2018-03-27T00:06:03.105Z,787.82
2018-03-27T00:06:07.216Z,787.85
2018-03-27T00:06:11.469Z,787.85
2018-03-27T00:06:15.574Z,787.86
2018-03-27T00:06:19.362Z,787.84
2018-03-27T00:06:23.692Z,787.82
2018-03-27T00:06:27.904Z,787.85
2018-03-27T00:06:32.003Z,787.85
2018-03-27T00:06:36.106Z,787.82
2018-03-27T00:06:40.213Z,787.83
2018-03-27T00:06:44.224Z,787.85
2018-03-27T00:06:48.330Z,787.82
2018-03-27T00:06:52.435Z,787.83
2018-03-27T00:06:56.537Z,787.84
2018-03-27T00:07:00.534Z,787.8
2018-03-27T00:07:04.630Z,787.83
2018-03-27T00:07:08.893Z,787.81
2018-03-27T00:07:13.106Z,787.81
2018-03-27T00:07:17.216Z,787.84
2018-03-27T00:07:21.430Z,787.8
2018-03-27T00:07:25.546Z,787.75
2018-03-27T00:07:29.702Z,787.8
2018-03-27T00:07:34.015Z,787.84
2018-03-27T00:07:38.290Z,787.83
2018-03-27T00:07:42.400Z,787.8
2018-03-27T00:07:46.393Z,787.83
2018-03-27T00:07:50.498Z,787.81
2018-03-27T00:07:54.635Z,787.8
2018-03-27T00:07:58.845Z,787.79
2018-03-27T00:08:03.106Z,787.78
2018-03-27T00:08:07.229Z,787.78
2018-03-27T00:08:11.439Z,787.76
2018-03-27T00:08:15.433Z,787.83
2018-03-27T00:08:19.540Z,787.81
2018-03-27T00:08:23.643Z,787.79
2018-03-27T00:08:27.855Z,787.81
2018-03-27T00:08:31.959Z,787.84
2018-03-27T00:08:35.952Z,787.83
2018-03-27T00:08:40.053Z,787.85
2018-03-27T00:08:44.057Z,787.81
2018-03-27T00:08:48.157Z,787.84
2018-03-27T00:08:52.040Z,787.86
2018-03-27T00:08:56.254Z,787.85
2018-03-27T00:09:00.465Z,787.85
2018-03-27T00:09:04.456Z,787.81
2018-03-27T00:09:08.350Z,787.81
2018-03-27T00:09:12.238Z,787.83
2018-03-27T00:09:16.231Z,787.81
2018-03-27T00:09:20.559Z,787.82
2018-03-27T00:09:24.442Z,787.82
2018-03-27T00:09:28.341Z,787.83
2018-03-27T00:09:32.231Z,787.82
2018-03-27T00:09:36.441Z,787.83
2018-03-27T00:09:40.436Z,787.84
2018-03-27T00:09:44.652Z,787.82
2018-03-27T00:09:48.865Z,787.82
2018-03-27T00:09:52.753Z,787.82
2018-03-27T00:09:56.865Z,787.83
2018-03-27T00:10:00.968Z,787.83
2018-03-27T00:10:05.113Z,787.81
2018-03-27T00:10:09.116Z,787.83
2018-03-27T00:10:13.112Z,787.8
2018-03-27T00:10:17.215Z,787.86
2018-03-27T00:10:21.208Z,787.83
2018-03-27T00:10:25.418Z,787.84
2018-03-27T00:10:29.526Z,787.79
2018-03-27T00:10:33.750Z,787.81
2018-03-27T00:10:37.957Z,787.8
2018-03-27T00:10:41.948Z,787.78
2018-03-27T00:10:45.944Z,787.8
2018-03-27T00:10:50.055Z,787.81
2018-03-27T00:10:53.996Z,787.82
2018-03-27T00:10:58.217Z,787.83
2018-03-27T00:11:02.214Z,787.77
2018-03-27T00:11:06.097Z,787.81
2018-03-27T00:11:10.313Z,787.81
2018-03-27T00:11:14.302Z,787.78
2018-03-27T00:11:18.511Z,787.81
2018-03-27T00:11:22.502Z,787.82
2018-03-27T00:11:26.500Z,787.81
2018-03-27T00:11:30.610Z,787.83
2018-03-27T00:11:34.710Z,787.83
2018-03-27T00:11:38.814Z,787.8
2018-03-27T00:11:42.915Z,787.81
2018-03-27T00:11:46.799Z,787.81
2018-03-27T00:11:51.008Z,787.76
2018-03-27T00:11:55.217Z,787.77
2018-03-27T00:11:59.107Z,787.8
2018-03-27T00:12:03.413Z,787.81
2018-03-27T00:12:07.628Z,787.78
2018-03-27T00:12:11.744Z,787.78
2018-03-27T00:12:15.846Z,787.78
2018-03-27T00:12:19.957Z,787.79
2018-03-27T00:12:24.058Z,787.81
2018-03-27T00:12:28.158Z,787.78
2018-03-27T00:12:32.042Z,787.79
2018-03-27T00:12:36.379Z,787.8
2018-03-27T00:12:40.487Z,787.79
2018-03-27T00:12:44.693Z,787.76
2018-03-27T00:12:48.900Z,787.8
2018-03-27T00:12:53.006Z,787.72
2018-03-27T00:12:57.341Z,787.76
2018-03-27T00:13:01.447Z,787.78
2018-03-27T00:13:05.226Z,787.78
2018-03-27T00:13:09.442Z,787.76
2018-03-27T00:13:13.667Z,787.76
2018-03-27T00:13:17.891Z,787.76
2018-03-27T00:13:22.005Z,787.75
2018-03-27T00:13:26.107Z,787.74
2018-03-27T00:13:30.324Z,787.7
2018-03-27T00:13:34.687Z,787.73
2018-03-27T00:13:38.681Z,787.69
2018-03-27T00:13:42.891Z,787.72
2018-03-27T00:13:46.669Z,787.7
2018-03-27T00:13:50.787Z,787.69
2018-03-27T00:13:54.772Z,787.7
2018-03-27T00:13:58.762Z,787.69
2018-03-27T00:14:03.025Z,787.7
2018-03-27T00:14:06.800Z,787.68
2018-03-27T00:14:10.685Z,787.67
2018-03-27T00:14:14.673Z,787.69
2018-03-27T00:14:18.453Z,787.67
2018-03-27T00:14:22.446Z,787.67
2018-03-27T00:14:26.446Z,787.69
2018-03-27T00:14:30.440Z,787.67
2018-03-27T00:14:34.548Z,787.68
2018-03-27T00:14:38.552Z,787.68
2018-03-27T00:14:42.763Z,787.68
2018-03-27T00:14:47.097Z,787.62
2018-03-27T00:14:50.987Z,787.65
2018-03-27T00:14:55.358Z,787.65
2018-03-27T00:14:59.460Z,787.64
2018-03-27T00:15:03.655Z,787.64
2018-03-27T00:15:07.540Z,787.63
2018-03-27T00:15:11.641Z,787.66
2018-03-27T00:15:15.416Z,787.65
2018-03-27T00:15:19.406Z,787.64
2018-03-27T00:15:23.667Z,787.65
2018-03-27T00:15:27.765Z,787.65
2018-03-27T00:15:31.863Z,787.65
2018-03-27T00:15:36.073Z,787.63
2018-03-27T00:15:40.178Z,787.64
2018-03-27T00:15:44.073Z,787.67
2018-03-27T00:15:48.291Z,787.66
2018-03-27T00:15:52.497Z,787.66
2018-03-27T00:15:56.705Z,787.63
2018-03-27T00:16:00.696Z,787.67
2018-03-27T00:16:05.044Z,787.67
2018-03-27T00:16:09.049Z,787.66
2018-03-27T00:16:13.040Z,787.65
2018-03-27T00:16:17.373Z,787.64
2018-03-27T00:16:21.473Z,787.65
2018-03-27T00:16:25.904Z,787.66
2018-03-27T00:16:30.316Z,787.62
2018-03-27T00:16:34.597Z,787.65
2018-03-27T00:16:38.584Z,787.66
2018-03-27T00:16:42.811Z,787.64
2018-03-27T00:16:47.025Z,787.66
2018-03-27T00:16:51.130Z,787.63
2018-03-27T00:16:55.339Z,787.64
2018-03-27T00:16:59.328Z,787.62
2018-03-27T00:17:03.565Z,787.63
2018-03-27T00:17:07.558Z,787.62
2018-03-27T00:17:11.667Z,787.65
2018-03-27T00:17:15.878Z,787.62
2018-03-27T00:17:20.084Z,787.61
2018-03-27T00:17:24.404Z,787.62
2018-03-27T00:17:28.560Z,787.61
2018-03-27T00:17:32.871Z,787.62
2018-03-27T00:17:36.977Z,787.61
2018-03-27T00:17:41.072Z,787.62
2018-03-27T00:17:45.171Z,787.61
2018-03-27T00:17:49.162Z,787.59
2018-03-27T00:17:53.155Z,787.6
2018-03-27T00:17:57.365Z,787.59
2018-03-27T00:18:01.569Z,787.61
2018-03-27T00:18:05.752Z,787.59
2018-03-27T00:18:09.525Z,787.55
2018-03-27T00:18:13.522Z,787.53
2018-03-27T00:18:17.504Z,787.53
2018-03-27T00:18:21.605Z,787.53
2018-03-27T00:18:25.707Z,787.56
2018-03-27T00:18:29.588Z,787.59
2018-03-27T00:18:33.467Z,787.57
2018-03-27T00:18:37.345Z,787.56
2018-03-27T00:18:41.446Z,787.57
2018-03-27T00:18:45.438Z,787.6
2018-03-27T00:18:49.536Z,787.61
2018-03-27T00:18:53.652Z,787.58
2018-03-27T00:18:57.752Z,787.57
2018-03-27T00:19:01.963Z,787.61
2018-03-27T00:19:06.114Z,787.57
2018-03-27T00:19:10.216Z,787.57
2018-03-27T00:19:14.422Z,787.6
2018-03-27T00:19:18.417Z,787.57
2018-03-27T00:19:22.407Z,787.6
2018-03-27T00:19:26.519Z,787.57
2018-03-27T00:19:30.617Z,787.56
2018-03-27T00:19:34.825Z,787.58
2018-03-27T00:19:38.705Z,787.57
2018-03-27T00:19:42.919Z,787.56
2018-03-27T00:19:47.023Z,787.59
2018-03-27T00:19:51.120Z,787.59
2018-03-27T00:19:55.341Z,787.62
2018-03-27T00:19:59.337Z,787.55
2018-03-27T00:20:03.701Z,787.56
2018-03-27T00:20:07.694Z,787.59
2018-03-27T00:20:11.904Z,787.57
2018-03-27T00:20:16.116Z,787.57
2018-03-27T00:20:20.107Z,787.57
2018-03-27T00:20:24.206Z,787.59
2018-03-27T00:20:28.307Z,787.58
2018-03-27T00:20:32.508Z,787.55
2018-03-27T00:20:36.609Z,787.61
2018-03-27T00:20:40.822Z,787.59
2018-03-27T00:20:45.048Z,787.57
2018-03-27T00:20:49.257Z,787.59
2018-03-27T00:20:53.374Z,787.59
2018-03-27T00:20:57.366Z,787.6
2018-03-27T00:21:01.577Z,787.59
2018-03-27T00:21:05.762Z,787.61
2018-03-27T00:21:09.753Z,787.6
2018-03-27T00:21:13.855Z,787.59
2018-03-27T00:21:18.171Z,787.58
2018-03-27T00:21:22.067Z,787.53
2018-03-27T00:21:26.176Z,787.59
2018-03-27T00:21:30.267Z,787.59
2018-03-27T00:21:34.261Z,787.58
2018-03-27T00:21:38.355Z,787.57
2018-03-27T00:21:42.457Z,787.59
2018-03-27T00:21:46.666Z,787.54
2018-03-27T00:21:50.993Z,787.52
2018-03-27T00:21:54.985Z,787.49
2018-03-27T00:21:59.084Z,787.56
2018-03-27T00:22:03.605Z,787.53
2018-03-27T00:22:07.593Z,787.56
2018-03-27T00:22:11.818Z,787.57
2018-03-27T00:22:16.026Z,787.53
2018-03-27T00:22:20.349Z,787.52
2018-03-27T00:22:24.466Z,787.49
2018-03-27T00:22:28.678Z,787.51
2018-03-27T00:22:32.994Z,787.5
2018-03-27T00:22:36.768Z,787.52
2018-03-27T00:22:40.755Z,787.57
2018-03-27T00:22:44.748Z,787.55
2018-03-27T00:22:48.957Z,787.57
2018-03-27T00:22:52.954Z,787.51
2018-03-27T00:22:57.048Z,787.53
2018-03-27T00:23:01.254Z,787.58
2018-03-27T00:23:05.032Z,787.53
2018-03-27T00:23:09.138Z,787.53
2018-03-27T00:23:13.239Z,787.55
2018-03-27T00:23:17.339Z,787.58
2018-03-27T00:23:21.450Z,787.57
2018-03-27T00:23:25.556Z,787.57
2018-03-27T00:23:29.660Z,787.52
2018-03-27T00:23:33.758Z,787.54
2018-03-27T00:23:37.965Z,787.52
2018-03-27T00:23:41.744Z,787.53
2018-03-27T00:23:45.967Z,787.57
2018-03-27T00:23:50.182Z,787.56
2018-03-27T00:23:54.181Z,787.56
2018-03-27T00:23:58.180Z,787.54
2018-03-27T00:24:02.320Z,787.55
2018-03-27T00:24:06.422Z,787.55
2018-03-27T00:24:10.411Z,787.54
2018-03-27T00:24:14.520Z,787.55
2018-03-27T00:24:18.628Z,787.54
2018-03-27T00:24:22.620Z,787.55
2018-03-27T00:24:26.400Z,787.54
2018-03-27T00:24:30.068Z,787.52
2018-03-27T00:24:34.060Z,787.52
2018-03-27T00:24:38.056Z,787.48
2018-03-27T00:24:42.156Z,787.51
2018-03-27T00:24:46.477Z,787.49
2018-03-27T00:24:50.577Z,787.48
2018-03-27T00:24:54.792Z,787.54
2018-03-27T00:24:58.787Z,787.52
2018-03-27T00:25:03.036Z,787.54
2018-03-27T00:25:07.146Z,787.56
2018-03-27T00:25:11.241Z,787.53
2018-03-27T00:25:15.233Z,787.57
2018-03-27T00:25:19.437Z,787.54
2018-03-27T00:25:23.642Z,787.55
2018-03-27T00:25:27.853Z,787.56
2018-03-27T00:25:32.065Z,787.53
2018-03-27T00:25:35.946Z,787.54
2018-03-27T00:25:39.825Z,787.55
2018-03-27T00:25:43.708Z,787.55
2018-03-27T00:25:47.699Z,787.53
2018-03-27T00:25:51.687Z,787.56
2018-03-27T00:25:55.784Z,787.55
2018-03-27T00:25:59.777Z,787.6
2018-03-27T00:26:03.874Z,787.55
2018-03-27T00:26:07.869Z,787.57
2018-03-27T00:26:11.976Z,787.56
2018-03-27T00:26:15.878Z,787.58
2018-03-27T00:26:19.868Z,787.56
2018-03-27T00:26:23.855Z,787.58
2018-03-27T00:26:27.690Z,787.58
2018-03-27T00:26:31.696Z,787.59
2018-03-27T00:26:35.806Z,787.58
2018-03-27T00:26:39.906Z,787.58
2018-03-27T00:26:44.138Z,787.57
2018-03-27T00:26:48.348Z,787.58
2018-03-27T00:26:52.448Z,787.57
2018-03-27T00:26:56.778Z,787.57
2018-03-27T00:27:01.037Z,787.56
2018-03-27T00:27:05.333Z,787.56
2018-03-27T00:27:09.432Z,787.56
2018-03-27T00:27:13.545Z,787.58
2018-03-27T00:27:17.644Z,787.57
2018-03-27T00:27:21.742Z,787.56
2018-03-27T00:27:25.562Z,787.54
2018-03-27T00:27:29.774Z,787.54
2018-03-27T00:27:33.872Z,787.53
2018-03-27T00:27:38.085Z,787.52
2018-03-27T00:27:42.302Z,787.52
2018-03-27T00:27:46.399Z,787.55
2018-03-27T00:27:50.497Z,787.53
2018-03-27T00:27:54.714Z,787.58
2018-03-27T00:27:58.827Z,787.53
2018-03-27T00:28:02.923Z,787.55
2018-03-27T00:28:06.920Z,787.56
2018-03-27T00:28:11.024Z,787.54
2018-03-27T00:28:15.234Z,787.54
2018-03-27T00:28:19.359Z,787.54
2018-03-27T00:28:23.243Z,787.54
2018-03-27T00:28:27.559Z,787.53
2018-03-27T00:28:31.671Z,787.56
2018-03-27T00:28:35.885Z,787.55
2018-03-27T00:28:39.888Z,787.56
2018-03-27T00:28:44.135Z,787.54
2018-03-27T00:28:48.258Z,787.52
2018-03-27T00:28:52.464Z,787.55
2018-03-27T00:28:56.361Z,787.59
2018-03-27T00:29:00.469Z,787.55
2018-03-27T00:29:04.676Z,787.55
2018-03-27T00:29:08.673Z,787.54
2018-03-27T00:29:12.667Z,787.52
2018-03-27T00:29:16.878Z,787.49
2018-03-27T00:29:21.087Z,787.48
2018-03-27T00:29:25.303Z,787.51
2018-03-27T00:29:29.298Z,787.54
2018-03-27T00:29:33.397Z,787.53
2018-03-27T00:29:37.390Z,787.51
2018-03-27T00:29:41.513Z,787.5
2018-03-27T00:29:45.611Z,787.46
2018-03-27T00:29:49.602Z,787.54
2018-03-27T00:29:53.601Z,787.54
2018-03-27T00:29:57.815Z,787.53
2018-03-27T00:30:02.026Z,787.53
2018-03-27T00:30:05.908Z,787.53
2018-03-27T00:30:09.904Z,787.54
2018-03-27T00:30:14.007Z,787.54
2018-03-27T00:30:18.325Z,787.54
2018-03-27T00:30:22.424Z,787.54
2018-03-27T00:30:26.307Z,787.54
2018-03-27T00:30:30.414Z,787.53
2018-03-27T00:30:34.514Z,787.56
2018-03-27T00:30:38.715Z,787.55
2018-03-27T00:30:42.920Z,787.56
2018-03-27T00:30:47.020Z,787.54
2018-03-27T00:30:51.120Z,787.55
2018-03-27T00:30:55.128Z,787.54
2018-03-27T00:30:59.117Z,787.54
2018-03-27T00:31:03.227Z,787.57
2018-03-27T00:31:07.328Z,787.57
2018-03-27T00:31:11.217Z,787.57
2018-03-27T00:31:15.539Z,787.55
2018-03-27T00:31:19.436Z,787.56
2018-03-27T00:31:23.536Z,787.52
2018-03-27T00:31:27.744Z,787.53
2018-03-27T00:31:31.627Z,787.53
2018-03-27T00:31:35.730Z,787.53
2018-03-27T00:31:39.721Z,787.53
2018-03-27T00:31:43.817Z,787.53
2018-03-27T00:31:47.925Z,787.52
2018-03-27T00:31:52.023Z,787.56
2018-03-27T00:31:56.240Z,787.57
2018-03-27T00:32:00.518Z,787.57
2018-03-27T00:32:04.614Z,787.59
2018-03-27T00:32:08.388Z,787.58
2018-03-27T00:32:12.485Z,787.56
2018-03-27T00:32:16.688Z,787.59
2018-03-27T00:32:21.008Z,787.6
2018-03-27T00:32:24.997Z,787.58
2018-03-27T00:32:29.203Z,787.58
2018-03-27T00:32:33.205Z,787.58
2018-03-27T00:32:37.346Z,787.58
2018-03-27T00:32:41.343Z,787.58
2018-03-27T00:32:45.552Z,787.59
2018-03-27T00:32:49.215Z,787.59
2018-03-27T00:32:53.312Z,787.59
2018-03-27T00:32:57.305Z,787.58
2018-03-27T00:33:01.194Z,787.61
2018-03-27T00:33:05.499Z,787.62
2018-03-27T00:33:09.711Z,787.57
2018-03-27T00:33:13.808Z,787.55
2018-03-27T00:33:17.797Z,787.56
2018-03-27T00:33:21.794Z,787.58
2018-03-27T00:33:25.783Z,787.57
2018-03-27T00:33:29.886Z,787.57
2018-03-27T00:33:33.881Z,787.59
2018-03-27T00:33:37.872Z,787.53
2018-03-27T00:33:41.764Z,787.51
2018-03-27T00:33:45.864Z,787.54
2018-03-27T00:33:49.995Z,787.55
2018-03-27T00:33:54.095Z,787.53
2018-03-27T00:33:58.417Z,787.51
2018-03-27T00:34:02.409Z,787.55
2018-03-27T00:34:06.522Z,787.55
2018-03-27T00:34:10.526Z,787.56
2018-03-27T00:34:14.515Z,787.55
2018-03-27T00:34:18.529Z,787.58
2018-03-27T00:34:22.749Z,787.56
2018-03-27T00:34:26.631Z,787.57
2018-03-27T00:34:30.623Z,787.57
2018-03-27T00:34:34.621Z,787.56
2018-03-27T00:34:38.612Z,787.59
2018-03-27T00:34:42.509Z,787.55
2018-03-27T00:34:46.609Z,787.56
2018-03-27T00:34:50.809Z,787.58
2018-03-27T00:34:55.127Z,787.55
2018-03-27T00:34:59.262Z,787.59
2018-03-27T00:35:03.735Z,787.55
2018-03-27T00:35:07.619Z,787.57
2018-03-27T00:35:11.612Z,787.56
2018-03-27T00:35:15.873Z,787.56
2018-03-27T00:35:20.089Z,787.55
2018-03-27T00:35:24.299Z,787.61
2018-03-27T00:35:28.293Z,787.57
2018-03-27T00:35:32.400Z,787.58
2018-03-27T00:35:36.389Z,787.57
2018-03-27T00:35:40.502Z,787.49
2018-03-27T00:35:44.831Z,787.54
2018-03-27T00:35:49.151Z,787.57
2018-03-27T00:35:53.466Z,787.59
2018-03-27T00:35:57.458Z,787.59
2018-03-27T00:36:01.832Z,787.56
2018-03-27T00:36:05.821Z,787.58
2018-03-27T00:36:09.704Z,787.56
2018-03-27T00:36:13.696Z,787.56
2018-03-27T00:36:17.798Z,787.54
2018-03-27T00:36:21.789Z,787.56
2018-03-27T00:36:25.777Z,787.55
2018-03-27T00:36:30.096Z,787.58
2018-03-27T00:36:34.194Z,787.6
2018-03-27T00:36:38.078Z,787.62
2018-03-27T00:36:42.067Z,787.58
2018-03-27T00:36:46.193Z,787.56
2018-03-27T00:36:50.186Z,787.54
2018-03-27T00:36:54.391Z,787.55
2018-03-27T00:36:58.384Z,787.59
2018-03-27T00:37:02.787Z,787.53
2018-03-27T00:37:06.889Z,787.6
2018-03-27T00:37:11.009Z,787.55
2018-03-27T00:37:15.116Z,787.53
2018-03-27T00:37:19.110Z,787.57
2018-03-27T00:37:23.103Z,787.59
2018-03-27T00:37:27.418Z,787.56
2018-03-27T00:37:31.413Z,787.56
2018-03-27T00:37:35.621Z,787.57
2018-03-27T00:37:39.622Z,787.56
2018-03-27T00:37:43.832Z,787.58
2018-03-27T00:37:47.715Z,787.58
2018-03-27T00:37:51.709Z,787.54
2018-03-27T00:37:55.917Z,787.56
2018-03-27T00:38:00.123Z,787.55
2018-03-27T00:38:04.415Z,787.53
2018-03-27T00:38:08.421Z,787.53
2018-03-27T00:38:12.526Z,787.52
2018-03-27T00:38:16.631Z,787.54
2018-03-27T00:38:20.521Z,787.57
2018-03-27T00:38:24.627Z,787.5
2018-03-27T00:38:28.778Z,787.54
2018-03-27T00:38:32.788Z,787.54
2018-03-27T00:38:36.884Z,787.55
2018-03-27T00:38:40.993Z,787.52
2018-03-27T00:38:44.999Z,787.55
2018-03-27T00:38:48.776Z,787.52
2018-03-27T00:38:52.871Z,787.57
2018-03-27T00:38:57.092Z,787.54
2018-03-27T00:39:01.302Z,787.55
2018-03-27T00:39:05.410Z,787.51
2018-03-27T00:39:09.514Z,787.53
2018-03-27T00:39:13.724Z,787.54
2018-03-27T00:39:17.715Z,787.53
2018-03-27T00:39:21.829Z,787.57
2018-03-27T00:39:25.969Z,787.56
2018-03-27T00:39:29.966Z,787.54
2018-03-27T00:39:33.960Z,787.56
2018-03-27T00:39:37.846Z,787.55
2018-03-27T00:39:41.727Z,787.52
2018-03-27T00:39:45.715Z,787.54
2018-03-27T00:39:49.812Z,787.54
2018-03-27T00:39:53.912Z,787.53
2018-03-27T00:39:58.116Z,787.51
2018-03-27T00:40:02.125Z,787.5
2018-03-27T00:40:06.005Z,787.55
2018-03-27T00:40:10.010Z,787.54
2018-03-27T00:40:14.108Z,787.53
2018-03-27T00:40:18.425Z,787.54
2018-03-27T00:40:22.530Z,787.55
2018-03-27T00:40:26.623Z,787.57
2018-03-27T00:40:30.823Z,787.53
2018-03-27T00:40:35.044Z,787.57
2018-03-27T00:40:39.149Z,787.55
2018-03-27T00:40:43.140Z,787.53
2018-03-27T00:40:47.238Z,787.53
2018-03-27T00:40:51.341Z,787.56
2018-03-27T00:40:55.560Z,787.57
2018-03-27T00:40:59.659Z,787.54
2018-03-27T00:41:04.106Z,787.58
2018-03-27T00:41:08.265Z,787.56
2018-03-27T00:41:12.421Z,787.56
2018-03-27T00:41:16.495Z,787.58
2018-03-27T00:41:20.387Z,787.58
2018-03-27T00:41:24.487Z,787.57
2018-03-27T00:41:28.585Z,787.54
2018-03-27T00:41:32.687Z,787.56
2018-03-27T00:41:37.009Z,787.58
2018-03-27T00:41:41.220Z,787.56
2018-03-27T00:41:45.212Z,787.55
2018-03-27T00:41:49.205Z,787.58
2018-03-27T00:41:53.412Z,787.53
2018-03-27T00:41:57.300Z,787.54
2018-03-27T00:42:01.865Z,787.55
2018-03-27T00:42:05.745Z,787.54
2018-03-27T00:42:09.850Z,787.57
2018-03-27T00:42:13.637Z,787.55
2018-03-27T00:42:17.842Z,787.58
2018-03-27T00:42:21.733Z,787.56
2018-03-27T00:42:25.833Z,787.6
2018-03-27T00:42:29.825Z,787.6
2018-03-27T00:42:33.817Z,787.58
2018-03-27T00:42:37.810Z,787.6
2018-03-27T00:42:42.130Z,787.58
2018-03-27T00:42:46.231Z,787.62
2018-03-27T00:42:50.334Z,787.57
2018-03-27T00:42:54.551Z,787.56
2018-03-27T00:42:58.774Z,787.55
2018-03-27T00:43:02.668Z,787.55
2018-03-27T00:43:06.804Z,787.56
2018-03-27T00:43:11.131Z,787.6
2018-03-27T00:43:15.189Z,787.58
2018-03-27T00:43:19.295Z,787.59
2018-03-27T00:43:23.286Z,787.6
2018-03-27T00:43:27.494Z,787.61
2018-03-27T00:43:31.700Z,787.61
2018-03-27T00:43:35.909Z,787.57
2018-03-27T00:43:40.065Z,787.59
2018-03-27T00:43:43.952Z,787.59
2018-03-27T00:43:47.946Z,787.58
2018-03-27T00:43:52.045Z,787.59
2018-03-27T00:43:56.254Z,787.59
2018-03-27T00:44:00.371Z,787.6
2018-03-27T00:44:04.492Z,787.61
2018-03-27T00:44:08.484Z,787.61
2018-03-27T00:44:12.596Z,787.62
2018-03-27T00:44:16.809Z,787.61
2018-03-27T00:44:20.799Z,787.61
2018-03-27T00:44:25.007Z,787.62
2018-03-27T00:44:29.105Z,787.6
2018-03-27T00:44:32.889Z,787.57
2018-03-27T00:44:36.997Z,787.62
2018-03-27T00:44:41.110Z,787.62
2018-03-27T00:44:45.329Z,787.64
2018-03-27T00:44:49.217Z,787.57
2018-03-27T00:44:53.317Z,787.61
2018-03-27T00:44:57.524Z,787.63
2018-03-27T00:45:01.920Z,787.58
2018-03-27T00:45:06.130Z,787.61
2018-03-27T00:45:10.344Z,787.62
2018-03-27T00:45:14.446Z,787.61
2018-03-27T00:45:18.540Z,787.6
2018-03-27T00:45:22.754Z,787.64
2018-03-27T00:45:26.819Z,787.63
2018-03-27T00:45:30.815Z,787.61
2018-03-27T00:45:34.921Z,787.63
2018-03-27T00:45:39.130Z,787.62
2018-03-27T00:45:43.237Z,787.61
2018-03-27T00:45:47.453Z,787.62
2018-03-27T00:45:51.448Z,787.62
2018-03-27T00:45:55.778Z,787.56
2018-03-27T00:46:00.094Z,787.56
2018-03-27T00:46:04.230Z,787.58
2018-03-27T00:46:08.550Z,787.54
2018-03-27T00:46:12.762Z,787.58
2018-03-27T00:46:16.870Z,787.58
2018-03-27T00:46:20.978Z,787.59
2018-03-27T00:46:25.297Z,787.57
2018-03-27T00:46:29.071Z,787.61
2018-03-27T00:46:33.171Z,787.59
2018-03-27T00:46:37.280Z,787.57
2018-03-27T00:46:41.487Z,787.57
2018-03-27T00:46:45.587Z,787.59
2018-03-27T00:46:49.686Z,787.59
2018-03-27T00:46:53.679Z,787.55
2018-03-27T00:46:57.780Z,787.56
2018-03-27T00:47:01.881Z,787.57
2018-03-27T00:47:05.871Z,787.6
2018-03-27T00:47:09.860Z,787.57
2018-03-27T00:47:14.191Z,787.61
2018-03-27T00:47:18.288Z,787.59
2018-03-27T00:47:22.382Z,787.6
2018-03-27T00:47:26.475Z,787.64
2018-03-27T00:47:30.579Z,787.64
2018-03-27T00:47:34.799Z,787.64
2018-03-27T00:47:38.682Z,787.64
2018-03-27T00:47:42.995Z,787.64
2018-03-27T00:47:47.209Z,787.64
2018-03-27T00:47:51.092Z,787.62
2018-03-27T00:47:54.979Z,787.61
2018-03-27T00:47:58.864Z,787.65
2018-03-27T00:48:02.962Z,787.63
2018-03-27T00:48:06.844Z,787.61
2018-03-27T00:48:11.084Z,787.62
2018-03-27T00:48:15.080Z,787.63
2018-03-27T00:48:19.395Z,787.56
2018-03-27T00:48:23.605Z,787.57
2018-03-27T00:48:27.488Z,787.64
2018-03-27T00:48:31.480Z,787.64
2018-03-27T00:48:35.796Z,787.64
2018-03-27T00:48:39.904Z,787.63
2018-03-27T00:48:44.022Z,787.65
2018-03-27T00:48:48.343Z,787.64
2018-03-27T00:48:52.546Z,787.65
2018-03-27T00:48:56.876Z,787.63
2018-03-27T00:49:00.866Z,787.64
2018-03-27T00:49:05.073Z,787.58
2018-03-27T00:49:09.276Z,787.57
2018-03-27T00:49:13.167Z,787.65
2018-03-27T00:49:17.282Z,787.65
2018-03-27T00:49:21.607Z,787.64
2018-03-27T00:49:25.709Z,787.61
2018-03-27T00:49:29.699Z,787.65
2018-03-27T00:49:33.583Z,787.64
2018-03-27T00:49:37.790Z,787.65
2018-03-27T00:49:41.787Z,787.65
2018-03-27T00:49:45.884Z,787.66
2018-03-27T00:49:50.205Z,787.63
2018-03-27T00:49:54.201Z,787.62
2018-03-27T00:49:58.423Z,787.66
2018-03-27T00:50:02.524Z,787.63
2018-03-27T00:50:06.734Z,787.62
2018-03-27T00:50:10.834Z,787.68
2018-03-27T00:50:14.932Z,787.65
2018-03-27T00:50:19.042Z,787.68
2018-03-27T00:50:22.928Z,787.66
2018-03-27T00:50:26.918Z,787.67
2018-03-27T00:50:31.013Z,787.63
2018-03-27T00:50:35.223Z,787.64
2018-03-27T00:50:39.323Z,787.66
2018-03-27T00:50:43.536Z,787.63
2018-03-27T00:50:47.743Z,787.66
2018-03-27T00:50:51.968Z,787.64
2018-03-27T00:50:56.065Z,787.64
2018-03-27T00:51:00.166Z,787.65
2018-03-27T00:51:04.163Z,787.66
2018-03-27T00:51:07.940Z,787.66
2018-03-27T00:51:12.051Z,787.65
2018-03-27T00:51:16.362Z,787.63